Cairns AAF (Fort Rucker) Air Field
KOZR : now visible

Airfield :











YOU CAN JOIN US ON...

 
LOGIN :

Register | Disclaimer

   EN    FR    IT 

 









Legend :    VFR   Marginal VFR   IFR   Intensive IFR   Very Intensive IFR
Visi :
Ceiling :
>= 8 km
>= 3000ft
5 to 8 km
1000 to 3000 ft
1500m to 5 km
500 to 1000 ft
800 to 1500m
200 to 500 ft
< 800m
< 200 ft
Symbols :   Thunderstorms  Fog  Heavy snow  Heavy precipitations  Wind > 20 kt






- Airport Elevation : 301 ft


KOZR - Cairns AAF (Fort Rucker) Air Field

CURRENT METAR :
  • 181355Z AUTO 24003KT 10SM FEW150 SCT200 21/19 A3011 RMK AO2 SLP196 T02090192 $

EXPIRED METARs :
  • 181255Z AUTO 00000KT 10SM FEW160 20/19 A3010 RMK AO2 SLP193 T01990185 $
  • 181155Z AUTO 00000KT 10SM FEW160 18/17 A3009 RMK AO2 SLP190 T01820169 10194 20166 52009 $
  • 181055Z AUTO 00000KT 10SM CLR 18/17 A3008 RMK AO2 SLP186 T01810169 $
  • 180955Z AUTO 27004KT 10SM BKN190 18/17 A3008 RMK AO2 SLP186 T01780168 $

TAF TAF KOZR
Valid from the 18 at 10:00 until the 19 at 16:00 UTC


181000Z 1810/1916 VRB04KT 9999 FEW003 SCT022 BKN160 QNH3006INS
TEMPO 1811/1814 1600 BR BKN003
BECMG 1814/1815 VRB06KT 9999 FEW025 BKN160 QNH3010INS
TEMPO 1814/1815 BKN005
BECMG 1818/1819 21006KT 9999 SCT030 BKN180 QNH3006INS
BECMG 1821/1822 23008KT 9999 SCT035 BKN180 QNH3002INS
BECMG 1906/1907 23005KT 9999 SCT010 BKN180 QNH3000INS TX28/1820Z TN13/1811Z
KZJX FIR / North America



MET'MAP, your aeronautical weather chart ! - Copyright ORBIFLY December 2007 - Disclaimer

ORBIFLY MET'MAP TEAM :

Programming & Development : Alexandra Zaïnal
Original concept : Baudouin d'Aumeries
Technical & hardware support : Manuel Goepfert
Assistance : Marc-Olivier Méhu




SOURCES & CREDITS :

   NOAA       Earth
Advisory